Huvudsida
METAR-TAF:

METAR-TAF

Flygplatser :

Singapore, Singapore

latitud: 01-22N, longitud: 103-55E, höjd: 18 m

Aktuellt väderrapport

Denna rapport gjordes för 57 minuter sedan, klockan 14:00 UTC
Vind 6 kt från syd/sydost
Temperatur 29°C
Fuktighet 79%
Tryck 1009 hPa
Sikt 10 km eller mer
Få moln på en höjd av 1800 ft
Brutna moln på en höjd av 30000 ft

METAR: WSAP 201400Z 15006KT 9999 FEW018 BKN300 29/25 Q1009

Tid: 22:57 (14:57 UTC)

Väderprognos

Denna rapport gjordes för 3 timmar och 57 minuter sedan, klockan 11:00 UTC
Prognos gäller från 20 kl. 12 UTC till 21 kl. 18 UTC
Vind 10 kt från syd
Sikt 10 km eller mer
Få moln på en höjd av 1500 ft
Spridda moln på en höjd av 2000 ft
Temporärt
från 21 kl. 02 UTC till 21 kl. 06 UTC
Sikt: 3000 m
Få moln på en höjd av 1200 ft, Cumulonimbus.
Brutna moln på en höjd av 1500 ft
åska, regn

TAF: WSAP 201100Z 2012/2118 18010KT 9999 FEW015 SCT020 TEMPO 2102/2106 3000 TSRA FEW012CB BKN015

Aktuella väderrapporter och prognoser från 4000 flygplatser (METAR- och TAF-rapporter).

De tillgängliga stationerna syns som gula och röda prickar på kartan.

För musen över prickarna för att se namnen på stationerna.

Klicka sedan för att få väderrapporter och prognoser.

För att ändra kartan: Klicka på de gröna knapparna med ett svart kors på för att zooma in; den gröna knappen med ett streck på för att zooma ut; eller på de gröna pilarna för angränsande kartor.


METAR-TAF: